Time;durP1;ratioP1;P1;durP2;ratioP2;P2;SDS_P1;SDS_P2;PMS_P1;PMS_P2;Temp;Humidity;BMP_temperature;BMP_pressure;BME280_temperature;BME280_humidity;BME280_pressure;Samples;Min_cycle;Max_cycle;Signal;HPM_P1;HPM_P2
2021/07/01 00:01:46;;;;;;;19.70;15.57;;;;;;;22.82;92.03;94624.03;5122907;27;23056;-66
2021/07/01 00:04:13;;;;;;;18.48;15.10;;;;;;;22.89;91.78;94619.03;5110047;27;20042;-65
2021/07/01 00:06:41;;;;;;;17.77;14.98;;;;;;;22.74;92.49;94632.78;5122988;27;20572;-66
2021/07/01 00:09:14;;;;;;;20.95;15.93;;;;;;;22.71;92.64;94632.31;5122521;27;20041;-66
2021/07/01 00:11:46;;;;;;;18.02;15.27;;;;;;;22.61;93.42;94624.66;5108833;27;20081;-67
2021/07/01 00:14:16;;;;;;;23.52;15.75;;;;;;;22.68;93.66;94640.88;5093262;27;20532;-67
2021/07/01 00:16:44;;;;;;;18.83;16.38;;;;;;;22.65;94.40;94646.84;5125886;27;20043;-66
2021/07/01 00:19:10;;;;;;;21.15;16.17;;;;;;;22.73;93.77;94641.84;5111809;27;20043;-66
2021/07/01 00:21:37;;;;;;;19.05;15.93;;;;;;;22.79;93.73;94651.19;5128992;27;20044;-66
2021/07/01 00:24:04;;;;;;;20.83;15.88;;;;;;;22.86;93.23;94646.19;5110638;27;20065;-66
2021/07/01 00:26:31;;;;;;;19.85;17.02;;;;;;;22.81;93.24;94649.78;5109457;27;20043;-66
2021/07/01 00:28:58;;;;;;;20.75;15.20;;;;;;;22.78;93.29;94644.31;5096709;27;20046;-66
2021/07/01 00:31:25;;;;;;;18.17;15.00;;;;;;;22.78;93.38;94629.19;5096111;27;20448;-66
2021/07/01 00:33:52;;;;;;;20.50;15.20;;;;;;;22.80;93.09;94636.84;5097491;27;20416;-66
2021/07/01 00:36:18;;;;;;;17.73;15.10;;;;;;;22.74;93.81;94632.78;5098249;27;20036;-66
2021/07/01 00:38:47;;;;;;;23.15;14.50;;;;;;;22.78;93.14;94639.00;5114248;27;20031;-66
2021/07/01 00:41:14;;;;;;;16.55;14.88;;;;;;;22.79;93.22;94624.66;5115185;27;20569;-66
2021/07/01 00:43:41;;;;;;;18.63;14.35;;;;;;;22.70;93.77;94622.00;5115339;27;20063;-66
2021/07/01 00:46:12;;;;;;;22.77;15.82;;;;;;;22.65;93.67;94625.59;5096132;27;20036;-66
2021/07/01 00:48:39;;;;;;;18.98;15.88;;;;;;;22.71;93.76;94624.34;5079100;27;20043;-66
2021/07/01 00:51:06;;;;;;;18.02;14.63;;;;;;;22.65;94.02;94625.59;5107889;27;20390;-66
2021/07/01 00:53:33;;;;;;;22.50;14.63;;;;;;;22.61;94.29;94629.94;5093021;28;20042;-66
2021/07/01 00:56:02;;;;;;;18.55;14.88;;;;;;;22.59;94.73;94626.84;5095468;27;20051;-66
2021/07/01 00:58:29;;;;;;;23.27;15.45;;;;;;;22.55;94.93;94631.22;5096068;27;20035;-66
2021/07/01 01:01:02;;;;;;;21.08;16.65;;;;;;;22.43;96.31;94623.06;5114890;27;20101;-66
2021/07/01 01:03:37;;;;;;;20.65;14.52;;;;;;;22.53;95.26;94622.78;5096357;27;20047;-66
2021/07/01 01:06:06;;;;;;;16.70;14.93;;;;;;;22.49;95.70;94619.16;5093839;27;20378;-66
2021/07/01 01:08:39;;;;;;;21.95;16.70;;;;;;;22.33;96.90;94619.63;5096186;27;20065;-66
2021/07/01 01:11:06;;;;;;;19.67;16.05;;;;;;;22.30;97.76;94622.91;5113455;27;20500;-66
2021/07/01 01:13:44;;;;;;;23.42;16.88;;;;;;;22.20;98.46;94615.22;5095354;27;20047;-66
2021/07/01 01:16:43;;;;;;;24.02;15.95;;;;;;;22.16;99.03;94619.56;5086005;28;20039;-66
2021/07/01 01:19:10;;;;;;;22.95;16.88;;;;;;;22.21;98.53;94626.63;5091495;27;20039;-68
2021/07/01 01:21:37;;;;;;;20.13;17.42;;;;;;;22.14;98.69;94619.88;5107103;28;20038;-66
2021/07/01 01:24:06;;;;;;;18.38;15.68;;;;;;;22.11;98.92;94611.75;5110619;27;20047;-65
2021/07/01 01:26:36;;;;;;;19.75;16.42;;;;;;;22.20;97.62;94609.94;5111332;27;20039;-65
2021/07/01 01:29:03;;;;;;;19.48;16.50;;;;;;;22.32;96.73;94618.06;5110404;27;20052;-66
2021/07/01 01:31:48;;;;;;;18.73;15.75;;;;;;;22.39;96.37;94628.22;5111019;27;20111;-66
2021/07/01 01:34:16;;;;;;;17.50;15.60;;;;;;;22.46;95.68;94633.09;5091511;28;20878;-66
2021/07/01 01:36:43;;;;;;;23.95;15.65;;;;;;;22.50;94.69;94624.16;5091252;28;20074;-66
2021/07/01 01:39:11;;;;;;;21.00;15.77;;;;;;;22.53;93.78;94625.44;5090755;27;20489;-66
2021/07/01 01:41:48;;;;;;;16.30;14.48;;;;;;;22.57;93.51;94639.63;5109557;27;20542;-66
2021/07/01 01:44:15;;;;;;;21.48;15.63;;;;;;;22.59;93.42;94637.44;5110803;27;20042;-66
2021/07/01 01:46:43;;;;;;;24.65;15.70;;;;;;;22.55;93.35;94633.88;5091458;28;20074;-66
2021/07/01 01:49:10;;;;;;;23.65;16.35;;;;;;;22.64;92.32;94634.66;5109820;27;20077;-66
2021/07/01 01:51:39;;;;;;;20.55;15.52;;;;;;;22.59;92.48;94626.84;5106535;28;20043;-66
2021/07/01 01:54:06;;;;;;;19.20;15.50;;;;;;;22.57;92.63;94638.88;5089752;28;20048;-66
2021/07/01 01:56:37;;;;;;;18.83;15.23;;;;;;;22.60;92.71;94636.38;5089188;28;20132;-65
2021/07/01 01:59:09;;;;;;;17.85;15.77;;;;;;;22.59;92.11;94636.69;5091763;27;20050;-66
2021/07/01 02:01:54;;;;;;;22.92;15.10;;;;;;;22.63;91.70;94635.72;5109832;27;20132;-66
2021/07/01 02:04:44;;;;;;;17.48;15.60;;;;;;;22.57;91.52;94618.41;5108505;27;20043;-66
2021/07/01 02:07:11;;;;;;;18.10;15.63;;;;;;;22.59;91.27;94632.13;5110055;27;20094;-66
2021/07/01 02:10:04;;;;;;;18.23;16.33;;;;;;;22.55;91.25;94631.22;5092247;28;20051;-66
2021/07/01 02:12:31;;;;;;;16.77;15.07;;;;;;;22.45;92.46;94637.59;5088549;28;20092;-66
2021/07/01 02:14:59;;;;;;;22.42;16.45;;;;;;;22.37;93.03;94646.34;5090420;28;20126;-66
2021/07/01 02:17:39;;;;;;;24.05;16.20;;;;;;;22.36;92.80;94649.28;5104766;27;20122;-66
2021/07/01 02:20:18;;;;;;;26.20;17.35;;;;;;;22.37;92.78;94650.88;5090664;27;20473;-66
2021/07/01 02:22:47;;;;;;;23.50;17.42;;;;;;;22.37;91.31;94648.22;5110008;27;20059;-66
2021/07/01 02:25:15;;;;;;;19.13;15.10;;;;;;;22.35;91.06;94650.41;5089975;27;20092;-67
2021/07/01 02:28:00;;;;;;;20.95;15.82;;;;;;;22.32;91.50;94652.56;5090319;27;20046;-66
2021/07/01 02:30:27;;;;;;;19.63;16.20;;;;;;;22.22;92.42;94650.19;5110072;27;20074;-66
2021/07/01 02:32:54;;;;;;;22.00;16.17;;;;;;;22.21;92.88;94659.22;5074031;28;20071;-66
2021/07/01 02:35:32;;;;;;;23.58;16.75;;;;;;;22.08;93.40;94654.81;5110420;27;20821;-66
2021/07/01 02:38:28;;;;;;;19.23;15.38;;;;;;;21.92;93.37;94673.78;5094673;27;20043;-66
2021/07/01 02:41:06;;;;;;;23.92;16.50;;;;;;;21.88;93.18;94667.53;5090015;28;20055;-66
2021/07/01 02:43:38;;;;;;;23.42;16.30;;;;;;;21.81;93.67;94661.91;5092069;28;20420;-66
2021/07/01 02:46:24;;;;;;;25.15;17.25;;;;;;;21.49;95.79;94666.41;5109131;27;20059;-66
2021/07/01 02:48:54;;;;;;;17.55;15.73;;;;;;;21.36;96.05;94667.25;5090427;28;20075;-66
2021/07/01 02:51:21;;;;;;;23.60;17.33;;;;;;;21.42;95.01;94665.25;5088872;27;20147;-66
2021/07/01 02:53:53;;;;;;;20.95;16.95;;;;;;;21.45;94.72;94662.81;5107374;27;20032;-66
2021/07/01 02:56:24;;;;;;;26.17;16.98;;;;;;;21.45;95.03;94677.91;5089848;27;20090;-66
2021/07/01 02:58:51;;;;;;;26.15;17.75;;;;;;;21.39;94.30;94680.69;5104318;28;20171;-65
2021/07/01 03:01:45;;;;;;;32.28;17.85;;;;;;;21.40;93.25;94684.09;5105638;27;20123;-66
2021/07/01 03:04:24;;;;;;;31.38;18.17;;;;;;;21.23;93.62;94694.59;5090083;28;20542;-66
2021/07/01 03:06:51;;;;;;;30.05;18.23;;;;;;;21.14;93.36;94692.69;5091459;28;20044;-65
2021/07/01 03:09:18;;;;;;;19.85;16.80;;;;;;;21.10;93.61;94698.84;5110457;27;20409;-66
2021/07/01 03:11:45;;;;;;;29.58;20.38;;;;;;;21.06;94.32;94696.03;5089407;28;20043;-65
2021/07/01 03:14:13;;;;;;;23.80;18.95;;;;;;;21.00;94.25;94697.25;5108207;28;20047;-66
2021/07/01 03:16:42;;;;;;;26.00;19.17;;;;;;;21.00;94.70;94707.84;5103952;28;20039;-66
2021/07/01 03:19:09;;;;;;;24.25;19.75;;;;;;;20.90;95.46;94702.75;5104831;28;20096;-66
2021/07/01 03:21:54;;;;;;;32.15;20.42;;;;;;;20.81;96.17;94706.13;5104414;28;20054;-66
2021/07/01 03:24:21;;;;;;;28.92;20.17;;;;;;;20.75;97.14;94707.31;5089478;28;20085;-65
2021/07/01 03:26:48;;;;;;;27.83;20.30;;;;;;;20.71;97.71;94695.75;5109033;28;20032;-66
2021/07/01 03:29:15;;;;;;;32.47;22.70;;;;;;;20.72;97.65;94683.31;5106723;28;20044;-66
2021/07/01 03:31:42;;;;;;;26.90;23.20;;;;;;;20.90;98.51;94713.34;5105491;28;20455;-66
2021/07/01 03:34:09;;;;;;;26.63;22.90;;;;;;;20.94;99.10;94724.88;5091501;28;20107;-66
2021/07/01 03:36:38;;;;;;;34.80;22.95;;;;;;;21.00;99.66;94713.13;5089989;28;20064;-66
2021/07/01 03:39:31;;;;;;;30.20;22.27;;;;;;;21.05;99.73;94710.38;5101337;28;20055;-66
2021/07/01 03:42:05;;;;;;;28.80;21.60;;;;;;;21.09;99.83;94727.22;5104200;28;20061;-66
2021/07/01 03:44:32;;;;;;;28.65;23.23;;;;;;;21.16;100.00;94722.28;5105176;28;20036;-66
2021/07/01 03:46:59;;;;;;;33.85;21.33;;;;;;;21.13;100.00;94725.53;5107065;28;20043;-66
2021/07/01 03:49:26;;;;;;;28.40;20.02;;;;;;;21.24;100.00;94720.00;5089523;28;20519;-66
2021/07/01 03:51:56;;;;;;;26.45;20.50;;;;;;;21.25;100.00;94724.19;5106738;28;20758;-67
2021/07/01 03:54:30;;;;;;;28.73;20.67;;;;;;;21.12;100.00;94708.09;5088918;28;20158;-67
2021/07/01 03:57:00;;;;;;;30.38;21.95;;;;;;;21.25;100.00;94718.91;5092379;28;20089;-67
2021/07/01 03:59:35;;;;;;;25.48;21.85;;;;;;;21.34;100.00;94727.72;5093063;28;20051;-67
2021/07/01 04:02:36;;;;;;;28.02;21.15;;;;;;;21.40;99.77;94729.16;5108555;27;20055;-67
2021/07/01 04:05:19;;;;;;;27.83;20.73;;;;;;;21.47;99.58;94726.88;5093187;27;20039;-68
2021/07/01 04:07:49;;;;;;;34.22;22.90;;;;;;;21.48;99.22;94733.75;5094271;27;20047;-67
2021/07/01 04:10:22;;;;;;;35.88;23.65;;;;;;;21.47;99.55;94721.59;5093878;28;20786;-67
2021/07/01 04:12:50;;;;;;;27.90;21.45;;;;;;;21.55;99.44;94739.41;5113087;27;20047;-68
2021/07/01 04:15:20;;;;;;;27.25;21.92;;;;;;;21.63;99.32;94723.88;5090143;28;20048;-67
2021/07/01 04:18:14;;;;;;;27.02;22.88;;;;;;;21.56;100.00;94719.75;5087982;28;20716;-67
2021/07/01 04:21:19;;;;;;;32.78;23.00;;;;;;;21.64;100.00;94709.53;5093494;28;20134;-68
2021/07/01 04:24:05;;;;;;;32.67;23.85;;;;;;;21.60;100.00;94706.69;5091620;28;20059;-68
2021/07/01 04:26:50;;;;;;;33.95;23.50;;;;;;;21.42;100.00;94697.84;5090297;28;20059;-67
2021/07/01 04:29:22;;;;;;;29.73;24.73;;;;;;;21.36;100.00;94699.06;5087905;28;20032;-68
2021/07/01 04:31:51;;;;;;;34.17;24.40;;;;;;;21.43;100.00;94703.91;5087168;28;20075;-67
2021/07/01 04:34:18;;;;;;;34.40;24.30;;;;;;;21.52;100.00;94696.84;5090972;28;20040;-67
2021/07/01 04:36:46;;;;;;;33.17;24.42;;;;;;;21.61;100.00;94696.88;5090850;28;20082;-67
2021/07/01 04:39:13;;;;;;;41.28;25.08;;;;;;;21.74;100.00;94694.13;5088162;28;20093;-67
2021/07/01 04:41:53;;;;;;;33.40;24.13;;;;;;;21.65;100.00;94684.59;5086341;28;20127;-67
2021/07/01 04:44:21;;;;;;;34.60;22.45;;;;;;;21.82;100.00;94705.88;5086505;28;20140;-68
2021/07/01 04:46:48;;;;;;;36.95;24.70;;;;;;;21.89;100.00;94684.22;5087571;28;20039;-67
2021/07/01 04:49:15;;;;;;;33.92;23.48;;;;;;;22.07;100.00;94703.63;5087654;28;20075;-67
2021/07/01 04:52:05;;;;;;;34.03;24.15;;;;;;;22.10;100.00;94700.38;5081390;28;20497;-66
2021/07/01 04:54:52;;;;;;;32.42;24.60;;;;;;;22.18;100.00;94707.56;5067064;28;20525;-67
2021/07/01 04:57:54;;;;;;;39.47;26.50;;;;;;;22.26;100.00;94708.69;5044566;28;20049;-67
2021/07/01 05:00:21;;;;;;;40.08;23.23;;;;;;;22.36;98.27;94718.28;5073152;28;20103;-67
2021/07/01 05:03:08;;;;;;;53.47;22.20;;;;;;;22.54;97.99;94719.88;5065228;28;20047;-67
2021/07/01 05:12:33;;;;;;;27.20;14.05;;;;;;;22.53;94.44;94728.94;5096793;27;20596;-65
2021/07/01 05:15:01;;;;;;;22.63;15.57;;;;;;;22.62;94.10;94727.06;5084946;28;20044;-66
2021/07/01 05:17:28;;;;;;;27.77;16.55;;;;;;;22.69;94.67;94721.31;5088687;28;20501;-66
2021/07/01 05:19:55;;;;;;;26.98;15.77;;;;;;;22.80;93.46;94711.19;5104080;28;20421;-66
2021/07/01 05:22:24;;;;;;;22.98;16.48;;;;;;;22.92;93.49;94716.63;5104381;28;20051;-66
2021/07/01 05:25:10;;;;;;;24.83;15.65;;;;;;;23.02;93.00;94711.03;5102547;28;20055;-67
2021/07/01 05:27:55;;;;;;;19.30;16.35;;;;;;;23.07;93.46;94721.53;5102654;28;20055;-66
2021/07/01 05:30:40;;;;;;;27.10;16.60;;;;;;;23.28;94.19;94718.22;5102902;28;20054;-65
2021/07/01 05:33:45;;;;;;;28.15;19.08;;;;;;;23.35;92.83;94705.25;5048519;28;20057;-66
2021/07/01 05:36:13;;;;;;;29.02;18.77;;;;;;;23.47;92.61;94713.34;5047155;28;20045;-66
2021/07/01 05:38:43;;;;;;;20.80;17.13;;;;;;;23.59;93.50;94714.59;5069111;28;20425;-66
2021/07/01 05:41:14;;;;;;;30.50;18.10;;;;;;;23.57;90.69;94711.47;5092007;28;20059;-66
2021/07/01 05:43:41;;;;;;;29.85;17.85;;;;;;;23.64;91.45;94714.41;5088470;28;20577;-66
2021/07/01 05:46:19;;;;;;;25.40;17.45;;;;;;;23.76;91.98;94708.44;5089527;28;20044;-66
2021/07/01 05:48:46;;;;;;;22.17;16.33;;;;;;;23.90;90.17;94702.97;5102167;28;20068;-66
2021/07/01 05:51:14;;;;;;;23.27;17.00;;;;;;;24.10;90.42;94707.56;5101984;28;20085;-66
2021/07/01 05:56:08;;;;;;;26.75;16.92;;;;;;;24.35;89.46;94689.16;5108122;28;20032;-66
2021/07/01 05:58:35;;;;;;;23.88;16.27;;;;;;;24.45;88.56;94691.44;5105307;28;20054;-67
2021/07/01 06:01:02;;;;;;;23.25;16.35;;;;;;;24.60;87.75;94698.88;5103904;28;20036;-66
2021/07/01 06:03:29;;;;;;;28.17;17.10;;;;;;;24.75;86.43;94699.44;5102290;28;20047;-66
2021/07/01 06:06:18;;;;;;;27.45;15.93;;;;;;;24.72;87.48;94684.09;5100943;28;20417;-66
2021/07/01 06:09:05;;;;;;;17.52;15.45;;;;;;;24.76;86.36;94701.00;5101310;28;20524;-66
2021/07/01 06:11:36;;;;;;;22.63;16.17;;;;;;;24.87;88.24;94706.72;5100626;28;20051;-65
2021/07/01 06:14:06;;;;;;;24.05;14.82;;;;;;;24.96;86.08;94705.53;5102285;28;20501;-66
2021/07/01 06:16:35;;;;;;;24.52;15.27;;;;;;;25.12;84.68;94702.25;5100897;28;20052;-65
2021/07/01 06:19:04;;;;;;;27.52;14.55;;;;;;;25.26;84.68;94707.34;5100730;28;20566;-65
2021/07/01 06:21:34;;;;;;;19.67;14.45;;;;;;;25.28;83.30;94699.81;5101631;28;20032;-65
2021/07/01 06:24:02;;;;;;;25.85;16.15;;;;;;;25.40;82.37;94702.53;5090874;28;20039;-65
2021/07/01 06:26:34;;;;;;;22.10;16.42;;;;;;;25.47;82.18;94702.00;5091977;28;20044;-66
2021/07/01 06:29:01;;;;;;;19.25;15.80;;;;;;;25.48;82.30;94699.00;5091515;28;20043;-67
2021/07/01 06:31:28;;;;;;;20.13;14.50;;;;;;;25.45;82.54;94693.56;5088064;28;20466;-67
2021/07/01 06:33:55;;;;;;;21.38;14.32;;;;;;;25.60;82.01;94695.59;5091310;28;20040;-66
2021/07/01 06:36:27;;;;;;;21.75;15.00;;;;;;;25.59;81.50;94672.72;5090282;28;20044;-67
2021/07/01 06:39:14;;;;;;;28.15;15.63;;;;;;;25.68;81.12;94691.28;5087437;28;20551;-67
2021/07/01 06:42:02;;;;;;;26.13;14.57;;;;;;;25.88;81.97;94694.97;5086895;28;20532;-67
2021/07/01 06:44:49;;;;;;;25.95;14.55;;;;;;;25.98;81.32;94694.56;5086847;28;20047;-67
2021/07/01 06:47:35;;;;;;;26.67;17.60;;;;;;;26.07;81.37;94691.78;5075087;28;20059;-66
2021/07/01 06:50:27;;;;;;;20.70;14.38;;;;;;;26.22;78.48;94698.38;5088570;28;20446;-67
2021/07/01 06:53:13;;;;;;;24.42;13.23;;;;;;;26.41;79.48;94695.91;5092502;28;20054;-67
2021/07/01 06:55:59;;;;;;;21.13;13.15;;;;;;;26.57;77.98;94692.56;5086613;28;20043;-66
2021/07/01 06:58:37;;;;;;;31.33;13.57;;;;;;;26.75;77.41;94693.88;5086376;28;20044;-67
2021/07/01 07:01:04;;;;;;;16.40;12.07;;;;;;;26.89;75.33;94686.28;5087578;28;20036;-67
2021/07/01 07:03:31;;;;;;;23.27;13.18;;;;;;;27.02;72.95;94691.59;5105708;27;20040;-67
2021/07/01 07:06:01;;;;;;;21.55;12.32;;;;;;;27.08;76.73;94690.22;5090437;28;20537;-67
2021/07/01 07:08:29;;;;;;;20.05;11.80;;;;;;;27.06;71.43;94687.13;5086973;28;20055;-67
2021/07/01 07:10:57;;;;;;;23.58;12.57;;;;;;;27.23;70.03;94689.53;5085367;28;20124;-67
2021/07/01 07:13:25;;;;;;;20.77;11.70;;;;;;;27.38;70.92;94687.25;5085361;28;20059;-68
2021/07/01 07:15:55;;;;;;;23.98;12.15;;;;;;;27.45;71.63;94687.44;5087116;28;20620;-67
2021/07/01 07:18:27;;;;;;;20.67;11.80;;;;;;;27.59;68.41;94677.13;5087915;28;20052;-67
2021/07/01 07:21:08;;;;;;;18.20;10.88;;;;;;;27.78;68.40;94681.00;5090161;28;20100;-67
2021/07/01 07:23:36;;;;;;;23.55;12.10;;;;;;;27.91;68.88;94679.84;5087977;28;20051;-67
2021/07/01 07:26:15;;;;;;;16.83;10.48;;;;;;;27.99;65.07;94678.13;5088438;28;20489;-67
2021/07/01 07:28:43;;;;;;;22.85;11.07;;;;;;;28.19;64.02;94671.72;5091557;28;20036;-67
2021/07/01 07:31:11;;;;;;;22.08;11.48;;;;;;;28.22;65.12;94670.25;5089424;28;20036;-67
2021/07/01 07:33:39;;;;;;;23.35;12.68;;;;;;;28.26;64.94;94671.09;5085666;28;20043;-67
2021/07/01 07:36:06;;;;;;;22.77;13.05;;;;;;;28.40;64.47;94671.44;5084973;28;20047;-68
2021/07/01 07:38:33;;;;;;;27.50;10.60;;;;;;;28.52;63.50;94669.75;5084749;28;20054;-67
2021/07/01 07:41:00;;;;;;;23.80;9.80;;;;;;;28.67;56.56;94668.97;5085619;28;20562;-68
2021/07/01 07:43:27;;;;;;;27.15;9.38;;;;;;;28.83;53.24;94670.81;5087953;28;20409;-67
2021/07/01 07:45:56;;;;;;;22.70;9.02;;;;;;;29.03;53.79;94660.88;5085268;28;20132;-66
2021/07/01 07:48:24;;;;;;;22.00;10.27;;;;;;;29.22;56.30;94666.25;5086636;28;20569;-68
2021/07/01 07:50:52;;;;;;;26.67;8.57;;;;;;;29.42;54.31;94664.31;5085246;28;20536;-68
2021/07/01 07:53:30;;;;;;;27.88;8.60;;;;;;;29.58;48.95;94663.47;5086566;28;20044;-67
2021/07/01 07:56:05;;;;;;;29.10;9.45;;;;;;;29.73;49.95;94662.59;5085783;28;20044;-67
2021/07/01 07:58:38;;;;;;;20.75;9.98;;;;;;;29.90;50.90;94656.75;5087854;28;20614;-68
2021/07/01 08:01:10;;;;;;;21.08;8.20;;;;;;;29.87;46.27;94646.75;5086291;28;20054;-68
2021/07/01 08:03:39;;;;;;;33.38;9.70;;;;;;;29.98;48.42;94663.03;5085602;28;20059;-68
2021/07/01 08:06:08;;;;;;;22.27;8.95;;;;;;;30.14;48.55;94664.78;5070786;28;20051;-70
2021/07/01 08:08:37;;;;;;;31.20;9.52;;;;;;;30.16;49.09;94651.78;5089282;28;20039;-68
2021/07/01 08:11:06;;;;;;;25.10;9.07;;;;;;;30.12;49.49;94657.09;5089770;28;20079;-67
2021/07/01 08:13:35;;;;;;;26.50;9.98;;;;;;;29.87;48.78;94660.19;5085968;28;20047;-67
2021/07/01 08:16:04;;;;;;;26.08;8.45;;;;;;;30.08;47.32;94656.28;5084352;28;20455;-67
2021/07/01 08:18:41;;;;;;;19.25;8.32;;;;;;;30.27;48.97;94647.34;5079173;28;20062;-67
2021/07/01 08:21:10;;;;;;;28.95;9.05;;;;;;;30.52;47.90;94646.94;5082938;28;20044;-68
2021/07/01 08:23:39;;;;;;;23.35;9.13;;;;;;;30.73;49.96;94644.53;5084171;28;20832;-67
2021/07/01 08:26:06;;;;;;;23.90;8.35;;;;;;;30.79;47.47;94645.00;5083689;28;20423;-67
2021/07/01 08:28:33;;;;;;;21.35;8.38;;;;;;;31.12;41.52;94646.19;5083651;28;20048;-67
2021/07/01 08:31:13;;;;;;;35.22;8.85;;;;;;;31.24;40.96;94649.41;5084026;28;20048;-67
2021/07/01 08:33:43;;;;;;;22.85;7.78;;;;;;;31.42;41.26;94646.91;5080184;28;20060;-67
2021/07/01 08:36:21;;;;;;;24.80;8.75;;;;;;;31.60;41.84;94649.81;5082934;28;20031;-67
2021/07/01 08:38:51;;;;;;;23.77;7.03;;;;;;;31.77;40.10;94637.63;5081424;28;20048;-67
2021/07/01 08:41:19;;;;;;;21.90;6.28;;;;;;;31.69;36.85;94630.63;5082318;28;20055;-67
2021/07/01 08:44:00;;;;;;;25.08;6.68;;;;;;;32.08;34.47;94640.97;5083339;28;20071;-67
2021/07/01 08:46:48;;;;;;;25.02;7.90;;;;;;;32.25;34.33;94634.19;5086544;28;20516;-67
2021/07/01 08:49:46;;;;;;;30.75;6.88;;;;;;;32.15;34.12;94642.97;5081331;27;20076;-67
2021/07/01 08:52:14;;;;;;;22.73;7.13;;;;;;;31.99;34.46;94627.03;5083474;28;20036;-67
2021/07/01 08:54:43;;;;;;;25.45;6.13;;;;;;;31.95;36.02;94637.00;5084848;28;20060;-67
2021/07/01 08:57:14;;;;;;;21.63;5.57;;;;;;;32.25;37.12;94628.00;5082270;28;20119;-67
2021/07/01 08:59:54;;;;;;;32.00;6.45;;;;;;;32.65;34.29;94629.06;5082942;28;20059;-67
2021/07/01 09:02:32;;;;;;;23.80;6.25;;;;;;;32.89;33.13;94622.97;5084338;28;20040;-67
2021/07/01 09:05:02;;;;;;;44.58;6.65;;;;;;;33.23;30.65;94625.44;5083018;28;20048;-67
2021/07/01 09:07:33;;;;;;;18.52;5.00;;;;;;;33.21;31.36;94622.34;5084927;28;20047;-67
2021/07/01 09:10:04;;;;;;;28.30;5.90;;;;;;;33.45;31.38;94615.44;5084429;28;20059;-67
2021/07/01 09:12:33;;;;;;;27.55;6.25;;;;;;;33.57;30.82;94617.03;5097288;28;20052;-68
2021/07/01 09:15:06;;;;;;;32.03;6.20;;;;;;;33.79;28.95;94617.06;5083837;28;20135;-68
2021/07/01 09:17:34;;;;;;;26.00;5.57;;;;;;;33.96;29.86;94621.69;5083241;28;20044;-68
2021/07/01 09:20:06;;;;;;;27.25;5.78;;;;;;;34.20;28.64;94613.97;5063485;28;20135;-67
2021/07/01 09:22:33;;;;;;;27.52;6.55;;;;;;;34.31;28.81;94614.72;5083578;28;20055;-67
2021/07/01 09:25:01;;;;;;;30.73;6.47;;;;;;;34.31;28.79;94614.72;5085216;28;20052;-67
2021/07/01 09:27:28;;;;;;;20.55;5.60;;;;;;;34.52;27.90;94610.41;5084443;28;20047;-67
2021/07/01 09:29:57;;;;;;;29.83;6.18;;;;;;;34.65;28.00;94608.84;5083857;28;20056;-67
2021/07/01 09:32:27;;;;;;;19.40;6.90;;;;;;;34.78;29.05;94609.97;5084394;28;20040;-67
2021/07/01 09:34:56;;;;;;;30.38;6.07;;;;;;;35.02;28.74;94612.97;5086293;28;20052;-67
2021/07/01 09:37:23;;;;;;;25.83;6.10;;;;;;;35.20;26.71;94616.41;5084238;28;20059;-67
2021/07/01 09:39:50;;;;;;;17.40;6.03;;;;;;;35.07;29.70;94607.16;5084421;28;20421;-68
2021/07/01 09:42:17;;;;;;;26.30;4.80;;;;;;;35.27;27.22;94609.41;5085357;28;20044;-67
2021/07/01 09:44:43;;;;;;;26.38;5.78;;;;;;;35.44;26.76;94605.81;5083085;28;20044;-67
2021/07/01 09:47:11;;;;;;;26.48;5.97;;;;;;;35.77;27.43;94600.97;5083468;28;20517;-67
2021/07/01 09:49:40;;;;;;;29.45;5.15;;;;;;;35.85;24.51;94599.72;5083715;28;20097;-68
2021/07/01 09:52:11;;;;;;;25.90;4.97;;;;;;;35.90;24.00;94602.00;5083973;28;20142;-67
2021/07/01 09:54:40;;;;;;;19.58;3.42;;;;;;;35.97;23.98;94587.63;5082695;28;20065;-68
2021/07/01 09:57:13;;;;;;;32.28;5.10;;;;;;;36.03;21.97;94596.09;5078397;28;20505;-67
2021/07/01 09:59:43;;;;;;;21.38;4.80;;;;;;;35.95;24.47;94589.97;5090193;28;20048;-67
2021/07/01 10:02:18;;;;;;;24.45;4.85;;;;;;;35.91;24.00;94592.72;5086757;28;20028;-67
2021/07/01 10:04:46;;;;;;;22.90;4.78;;;;;;;35.91;22.85;94579.16;5087375;28;20131;-67
2021/07/01 10:07:19;;;;;;;33.53;4.70;;;;;;;36.17;22.18;94574.28;5087191;28;20525;-67
2021/07/01 10:09:47;;;;;;;;;;;;;;;36.47;22.98;94580.97;5087924;28;20036;-67
2021/07/01 10:12:28;;;;;;;23.48;5.63;;;;;;;36.64;24.34;94574.56;5086494;28;19928;-67
2021/07/01 10:14:58;;;;;;;24.48;5.25;;;;;;;36.79;24.06;94574.41;5088180;28;20052;-67
2021/07/01 10:17:26;;;;;;;20.65;3.85;;;;;;;36.94;22.73;94570.34;5087249;28;20071;-67
2021/07/01 10:20:09;;;;;;;32.75;5.45;;;;;;;36.92;21.22;94567.28;5085885;28;20036;-67
2021/07/01 10:22:42;;;;;;;27.30;5.38;;;;;;;37.02;21.48;94558.22;5088378;28;20043;-67
2021/07/01 10:25:10;;;;;;;32.60;6.00;;;;;;;36.98;21.30;94554.78;5087762;28;20552;-67
2021/07/01 10:27:41;;;;;;;33.08;5.78;;;;;;;37.12;22.73;94560.03;5087786;28;20055;-67
2021/07/01 10:30:23;;;;;;;35.95;6.32;;;;;;;37.20;20.35;94555.28;5087833;28;20421;-67
2021/07/01 10:32:54;;;;;;;25.48;5.05;;;;;;;37.39;20.11;94544.94;5069897;28;20059;-67
2021/07/01 10:35:33;;;;;;;28.95;5.60;;;;;;;37.74;21.80;94549.03;5086270;28;20111;-67
2021/07/01 10:38:07;;;;;;;32.25;6.20;;;;;;;37.74;21.39;94546.31;5068072;28;20051;-67
2021/07/01 10:40:45;;;;;;;26.95;5.90;;;;;;;37.81;21.40;94538.06;5086289;28;20524;-67
2021/07/01 10:43:15;;;;;;;27.73;6.53;;;;;;;37.65;21.63;94535.22;5087305;28;20046;-67
2021/07/01 10:45:57;;;;;;;32.30;6.65;;;;;;;37.78;22.74;94529.97;5086811;28;20035;-67
2021/07/01 10:48:25;;;;;;;24.75;4.97;;;;;;;37.97;21.42;94529.25;5086913;28;20046;-67
2021/07/01 10:51:06;;;;;;;25.52;4.97;;;;;;;38.44;19.51;94518.28;5086434;28;20036;-67
2021/07/01 10:53:41;;;;;;;32.67;6.43;;;;;;;37.94;22.18;94518.44;5085821;28;20826;-67
2021/07/01 10:56:17;;;;;;;30.23;5.38;;;;;;;37.27;22.58;94516.41;5086168;28;20129;-67
2021/07/01 10:58:52;;;;;;;33.53;5.78;;;;;;;36.84;22.71;94517.75;5087168;28;20604;-67
2021/07/01 11:01:30;;;;;;;36.17;7.13;;;;;;;37.52;21.06;94507.09;5086363;28;20598;-68
2021/07/01 11:04:06;;;;;;;37.33;5.82;;;;;;;38.09;21.54;94508.84;5087474;28;20520;-67
2021/07/01 11:06:34;;;;;;;34.75;5.90;;;;;;;38.67;20.06;94502.31;5087238;28;20054;-67
2021/07/01 11:09:01;;;;;;;29.52;6.43;;;;;;;38.93;20.13;94498.66;5087701;28;20048;-67
2021/07/01 11:11:33;;;;;;;26.92;6.07;;;;;;;38.90;21.35;94493.28;5086380;28;20059;-67
2021/07/01 11:14:11;;;;;;;33.55;6.15;;;;;;;38.74;21.32;94474.97;5086888;28;20519;-67
2021/07/01 11:16:43;;;;;;;36.40;5.88;;;;;;;38.63;21.06;94483.34;5086486;28;20071;-67
2021/07/01 11:19:18;;;;;;;36.13;6.13;;;;;;;39.03;19.02;94485.25;5086700;28;20113;-67
2021/07/01 11:21:50;;;;;;;34.10;6.68;;;;;;;38.96;19.66;94481.44;5086146;28;20048;-67
2021/07/01 11:24:19;;;;;;;33.97;7.18;;;;;;;38.57;20.02;94483.09;5083890;28;20552;-67
2021/07/01 11:26:51;;;;;;;28.25;6.53;;;;;;;38.79;19.73;94477.19;5085327;28;20044;-67
2021/07/01 11:29:34;;;;;;;30.00;6.95;;;;;;;39.26;19.97;94476.91;5085541;28;20051;-67
2021/07/01 11:32:01;;;;;;;27.65;6.18;;;;;;;38.88;20.90;94479.31;5086038;28;20046;-67
2021/07/01 11:34:41;;;;;;;24.73;6.35;;;;;;;38.93;18.81;94476.88;5086537;28;20504;-67
2021/07/01 11:37:09;;;;;;;27.65;6.18;;;;;;;38.93;19.55;94471.44;5085381;28;20044;-67
2021/07/01 11:39:36;;;;;;;35.03;5.60;;;;;;;38.85;20.71;94459.16;5086844;28;20489;-67
2021/07/01 11:42:04;;;;;;;39.08;7.20;;;;;;;38.09;23.28;94462.63;5086070;28;20510;-67
2021/07/01 11:44:33;;;;;;;29.95;6.00;;;;;;;37.64;22.11;94452.97;5085448;28;20050;-67
2021/07/01 11:47:03;;;;;;;39.40;7.38;;;;;;;36.96;23.64;94459.44;5086390;28;20039;-67
2021/07/01 11:49:31;;;;;;;38.40;7.20;;;;;;;37.43;21.46;94443.22;5085166;28;20062;-67
2021/07/01 11:52:02;;;;;;;30.58;8.40;;;;;;;37.49;22.14;94430.72;5086049;28;20056;-67
2021/07/01 11:54:29;;;;;;;30.50;7.38;;;;;;;37.28;21.63;94420.22;5085009;28;20036;-67